createdAt,value
2014-09-09T00:00:36.279Z,23.48
2014-09-09T00:01:41.265Z,23.78
2014-09-09T00:02:45.956Z,23.48
2014-09-09T00:03:50.629Z,23.42
2014-09-09T00:04:55.318Z,23.31
2014-09-09T00:06:00.009Z,23.26
2014-09-09T00:07:04.994Z,23.21
2014-09-09T00:08:09.685Z,23.04
2014-09-09T00:09:14.359Z,23.22
2014-09-09T00:10:19.048Z,23.5
2014-09-09T00:11:23.738Z,23.18
2014-09-09T00:12:28.708Z,22.84
2014-09-09T00:13:33.695Z,23.17
2014-09-09T00:14:38.384Z,23.41
2014-09-09T00:15:43.075Z,23.4
2014-09-09T00:16:48.044Z,22.98
2014-09-09T00:17:52.735Z,22.94
2014-09-09T00:18:57.423Z,23.24
2014-09-09T00:20:02.113Z,23.34
2014-09-09T00:21:06.788Z,23.42
2014-09-09T00:22:11.476Z,23.49
2014-09-09T00:23:16.166Z,23.73
2014-09-09T00:24:20.856Z,23.27
2014-09-09T00:25:25.529Z,23.34
2014-09-09T00:26:30.220Z,23.13
2014-09-09T00:27:34.908Z,23.26
2014-09-09T00:28:39.896Z,23.4
2014-09-09T00:29:44.585Z,23.34
2014-09-09T00:30:49.259Z,23.32
2014-09-09T00:31:54.245Z,23.32
2014-09-09T00:32:58.247Z,23.58
2014-09-09T00:34:02.937Z,23.35
2014-09-09T00:35:07.626Z,23.31
2014-09-09T00:36:12.316Z,22.82
2014-09-09T00:37:17.302Z,22.92
2014-09-09T00:38:21.993Z,23.05
2014-09-09T00:39:26.682Z,23.38
2014-09-09T00:40:31.653Z,23.54
2014-09-09T00:41:35.655Z,23.59
2014-09-09T00:42:40.344Z,23.39
2014-09-09T00:43:45.331Z,23.31
2014-09-09T00:44:50.020Z,23.06
2014-09-09T00:45:55.007Z,23.2
2014-09-09T00:46:59.681Z,23.4
2014-09-09T00:48:04.371Z,23.13
2014-09-09T00:49:09.060Z,23.08
2014-09-09T00:50:14.046Z,22.95
2014-09-09T00:51:18.721Z,22.98
2014-09-09T00:52:23.409Z,22.9
2014-09-09T00:53:28.397Z,22.86
2014-09-09T00:54:33.085Z,23.18
2014-09-09T00:55:38.073Z,23.12
2014-09-09T00:56:42.746Z,23.11
2014-09-09T00:57:47.436Z,23.06
2014-09-09T00:58:52.422Z,23.2
2014-09-09T00:59:57.096Z,23
2014-09-09T01:01:01.786Z,23.02
2014-09-09T01:02:06.475Z,23.14
2014-09-09T01:03:11.447Z,22.91
2014-09-09T01:04:16.135Z,22.72
2014-09-09T01:05:21.123Z,22.82
2014-09-09T01:06:26.108Z,22.98
2014-09-09T01:07:30.799Z,22.98
2014-09-09T01:08:35.784Z,23.04
2014-09-09T01:09:40.459Z,23.14
2014-09-09T01:10:45.444Z,22.97
2014-09-09T01:11:50.135Z,22.78
2014-09-09T01:12:54.809Z,22.97
2014-09-09T01:13:59.498Z,23.02
2014-09-09T01:15:04.188Z,23.2
2014-09-09T01:16:09.175Z,23
2014-09-09T01:17:13.848Z,23.08
2014-09-09T01:18:18.834Z,22.71
2014-09-09T01:19:23.525Z,22.44
2014-09-09T01:20:28.510Z,22.48
2014-09-09T01:21:33.497Z,22.39
2014-09-09T01:22:38.187Z,22.72
2014-09-09T01:23:42.876Z,22.9
2014-09-09T01:24:47.566Z,22.92
2014-09-09T01:25:52.552Z,22.79
2014-09-09T01:26:57.538Z,22.74
2014-09-09T01:28:02.213Z,22.54
2014-09-09T01:29:07.199Z,22.73
2014-09-09T01:30:11.889Z,22.86
2014-09-09T01:31:16.579Z,22.7
2014-09-09T01:32:21.564Z,22.8
2014-09-09T01:33:26.254Z,22.63
2014-09-09T01:34:30.929Z,22.49
2014-09-09T01:35:35.914Z,22.63
2014-09-09T01:36:40.605Z,22.46
2014-09-09T01:37:45.293Z,22.4
2014-09-09T01:38:50.265Z,22.56
2014-09-09T01:39:55.250Z,22.65
2014-09-09T01:40:59.941Z,22.58
2014-09-09T01:42:04.926Z,22.51
2014-09-09T01:43:09.617Z,22.56
2014-09-09T01:44:14.306Z,22.37
2014-09-09T01:45:19.293Z,22.35
2014-09-09T01:46:24.279Z,22.37
2014-09-09T01:47:28.968Z,22.4
2014-09-09T01:48:33.939Z,22.56
2014-09-09T01:49:38.629Z,22.7
2014-09-09T01:50:43.616Z,22.31
2014-09-09T01:51:48.305Z,22.4
2014-09-09T01:52:53.292Z,22.52
2014-09-09T01:53:57.981Z,22.61
2014-09-09T01:55:02.670Z,22.58
2014-09-09T01:56:07.657Z,22.46
2014-09-09T01:57:12.330Z,22.44
2014-09-09T01:58:17.021Z,22.48
2014-09-09T01:59:21.710Z,22.11
2014-09-09T02:00:26.431Z,22
2014-09-09T02:01:31.120Z,21.91
2014-09-09T02:02:35.811Z,21.94
2014-09-09T02:03:40.796Z,22.3
2014-09-09T02:04:45.486Z,22.26
2014-09-09T02:05:50.175Z,22.48
2014-09-09T02:06:54.866Z,22.46
2014-09-09T02:07:59.555Z,22.38
2014-09-09T02:09:04.244Z,22.3
2014-09-09T02:10:08.919Z,22.32
2014-09-09T02:11:13.905Z,22.25
2014-09-09T02:12:18.595Z,22.08
2014-09-09T02:13:23.581Z,21.92
2014-09-09T02:14:28.270Z,21.71
2014-09-09T02:15:32.960Z,21.35
2014-09-09T02:16:37.649Z,21.85
2014-09-09T02:17:42.340Z,22.12
2014-09-09T02:18:47.028Z,22.27
2014-09-09T02:19:51.719Z,21.84
2014-09-09T02:20:56.407Z,21.99
2014-09-09T02:22:01.098Z,22.24
2014-09-09T02:23:06.380Z,22.24
2014-09-09T02:24:11.071Z,22.08
2014-09-09T02:25:15.760Z,22.02
2014-09-09T02:26:20.450Z,21.94
2014-09-09T02:27:25.124Z,21.82
2014-09-09T02:28:30.110Z,22.11
2014-09-09T02:29:35.096Z,21.98
2014-09-09T02:30:39.786Z,22.02
2014-09-09T02:31:44.492Z,22.12
2014-09-09T02:32:49.197Z,22.13
2014-09-09T02:33:53.901Z,22.08
2014-09-09T02:34:58.606Z,21.76
2014-09-09T02:36:03.608Z,21.91
2014-09-09T02:37:08.313Z,22.05
2014-09-09T02:38:13.020Z,22.01
2014-09-09T02:39:17.725Z,22.03
2014-09-09T02:40:22.461Z,22.05
2014-09-09T02:41:27.181Z,22.06
2014-09-09T02:42:32.215Z,21.98
2014-09-09T02:43:37.248Z,22.19
2014-09-09T02:44:41.970Z,22
2014-09-09T02:45:46.705Z,21.84
2014-09-09T02:46:50.754Z,21.82
2014-09-09T02:47:55.491Z,21.93
2014-09-09T02:49:00.228Z,22.1
2014-09-09T02:50:04.963Z,22.04
2014-09-09T02:51:09.701Z,21.92
2014-09-09T02:52:14.452Z,22.02
2014-09-09T02:53:19.189Z,22.1
2014-09-09T02:54:23.926Z,22.05
2014-09-09T02:55:28.661Z,22.04
2014-09-09T02:56:33.398Z,21.91
2014-09-09T02:57:38.135Z,21.92
2014-09-09T02:58:42.871Z,22
2014-09-09T02:59:47.607Z,21.94
2014-09-09T03:00:52.344Z,21.96
2014-09-09T03:01:57.080Z,22.12
2014-09-09T03:03:01.817Z,22.26
2014-09-09T03:04:06.554Z,21.97
2014-09-09T03:05:11.321Z,21.44
2014-09-09T03:06:16.074Z,21.29
2014-09-09T03:07:20.809Z,21.39
2014-09-09T03:08:25.545Z,21.31
2014-09-09T03:09:30.564Z,21.17
2014-09-09T03:10:35.315Z,21.06
2014-09-09T03:11:40.037Z,21.04
2014-09-09T03:12:44.789Z,21
2014-09-09T03:13:49.509Z,20.97
2014-09-09T03:14:54.246Z,21.04
2014-09-09T03:15:58.982Z,21
2014-09-09T03:17:03.750Z,21.11
2014-09-09T03:18:08.486Z,21.12
2014-09-09T03:19:13.223Z,20.98
2014-09-09T03:20:17.960Z,21.13
2014-09-09T03:21:22.696Z,21.5
2014-09-09T03:22:27.433Z,21.72
2014-09-09T03:23:32.152Z,21.81
2014-09-09T03:24:36.890Z,21.58
2014-09-09T03:25:41.625Z,21.96
2014-09-09T03:26:46.363Z,21.8
2014-09-09T03:27:51.099Z,21.57
2014-09-09T03:28:55.834Z,21.52
2014-09-09T03:30:00.557Z,21.44
2014-09-09T03:31:05.589Z,21.33
2014-09-09T03:32:10.326Z,21.46
2014-09-09T03:33:15.063Z,21.34
2014-09-09T03:34:19.798Z,21.3
2014-09-09T03:35:24.535Z,21.64
2014-09-09T03:36:29.271Z,21.74
2014-09-09T03:37:33.993Z,21.96
2014-09-09T03:38:38.728Z,22.04
2014-09-09T03:39:43.466Z,22.04
2014-09-09T03:40:48.202Z,21.99
2014-09-09T03:41:52.938Z,21.62
2014-09-09T03:42:57.675Z,21.45
2014-09-09T03:44:02.411Z,21.48
2014-09-09T03:45:07.148Z,21.42
2014-09-09T03:46:11.884Z,21.36
2014-09-09T03:47:16.620Z,21.37
2014-09-09T03:48:21.357Z,21.22
2014-09-09T03:49:26.094Z,21.3
2014-09-09T03:50:30.830Z,21.64
2014-09-09T03:51:35.550Z,21.87
2014-09-09T03:52:40.288Z,21.86
2014-09-09T03:53:45.024Z,21.87
2014-09-09T03:54:50.057Z,21.49
2014-09-09T03:55:54.778Z,21.41
2014-09-09T03:56:59.514Z,21.47
2014-09-09T03:58:04.251Z,21.28
2014-09-09T03:59:08.987Z,21.36
2014-09-09T04:00:13.036Z,21.48
2014-09-09T04:01:17.772Z,21.43
2014-09-09T04:02:22.509Z,21.51
2014-09-09T04:03:27.245Z,21.6
2014-09-09T04:04:31.981Z,21.68
2014-09-09T04:05:36.719Z,21.68
2014-09-09T04:06:41.454Z,21.79
2014-09-09T04:07:46.473Z,21.7
2014-09-09T04:08:51.505Z,21.69
2014-09-09T04:09:56.524Z,21.69
2014-09-09T04:11:01.260Z,21.45
2014-09-09T04:12:05.996Z,21.53
2014-09-09T04:13:10.717Z,21.51
2014-09-09T04:14:15.454Z,21.48
2014-09-09T04:15:20.190Z,21.52
2014-09-09T04:16:24.926Z,21.47
2014-09-09T04:17:29.678Z,21.51
2014-09-09T04:18:34.727Z,21.38
2014-09-09T04:19:39.479Z,20.84
2014-09-09T04:20:44.231Z,20.76
2014-09-09T04:21:48.281Z,20.89
2014-09-09T04:22:53.016Z,20.84
2014-09-09T04:23:57.738Z,20.94
2014-09-09T04:25:02.475Z,20.81
2014-09-09T04:26:07.195Z,20.86
2014-09-09T04:27:11.932Z,21.13
2014-09-09T04:28:16.668Z,21.31
2014-09-09T04:29:21.389Z,21.29
2014-09-09T04:30:26.423Z,21.49
2014-09-09T04:31:30.455Z,21.48
2014-09-09T04:32:35.192Z,21.62
2014-09-09T04:33:39.928Z,21.35
2014-09-09T04:34:44.650Z,21.15
2014-09-09T04:35:49.385Z,21.01
2014-09-09T04:36:54.122Z,21.2
2014-09-09T04:37:58.867Z,21.49
2014-09-09T04:39:03.947Z,21.3
2014-09-09T04:40:08.039Z,21.38
2014-09-09T04:41:12.804Z,21.43
2014-09-09T04:42:17.882Z,21.44
2014-09-09T04:43:22.620Z,21.5
2014-09-09T04:44:27.670Z,21.29
2014-09-09T04:45:32.424Z,20.98
2014-09-09T04:46:37.175Z,21.04
2014-09-09T04:47:41.925Z,21.08
2014-09-09T04:48:46.651Z,20.96
2014-09-09T04:49:51.692Z,20.97
2014-09-09T04:50:56.417Z,21.3
2014-09-09T04:52:01.159Z,21.63
2014-09-09T04:53:06.196Z,21.84
2014-09-09T04:54:10.919Z,21.77
2014-09-09T04:55:15.658Z,21.78
2014-09-09T04:56:20.678Z,21.71
2014-09-09T04:57:25.416Z,21.51
2014-09-09T04:58:30.121Z,21.5
2014-09-09T04:59:35.110Z,21.46
2014-09-09T05:00:39.799Z,21.65
2014-09-09T05:01:44.475Z,21.84
2014-09-09T05:02:49.757Z,21.84
2014-09-09T05:03:54.448Z,21.72
2014-09-09T05:04:59.137Z,21.49
2014-09-09T05:06:04.124Z,21.79
2014-09-09T05:07:08.797Z,21.78
2014-09-09T05:08:13.488Z,21.7
2014-09-09T05:09:18.176Z,21.44
2014-09-09T05:10:22.866Z,21.22
2014-09-09T05:11:27.541Z,21.7
2014-09-09T05:12:31.543Z,21.84
2014-09-09T05:13:36.231Z,21.96
2014-09-09T05:14:40.905Z,21.9
2014-09-09T05:15:45.610Z,21.82
2014-09-09T05:16:50.301Z,22
2014-09-09T05:17:55.286Z,22.03
2014-09-09T05:18:59.977Z,21.92
2014-09-09T05:20:04.666Z,21.93
2014-09-09T05:21:09.357Z,21.84
2014-09-09T05:22:14.030Z,21.87
2014-09-09T05:23:18.720Z,22.02
2014-09-09T05:24:23.409Z,21.68
2014-09-09T05:25:28.099Z,21.81
2014-09-09T05:26:33.085Z,21.62
2014-09-09T05:27:38.055Z,22.4
2014-09-09T05:28:42.746Z,22.65
2014-09-09T05:29:47.732Z,22.69
2014-09-09T05:30:52.422Z,21.91
2014-09-09T05:31:57.095Z,22.05
2014-09-09T05:33:01.785Z,22.1
2014-09-09T05:34:06.474Z,22.25
2014-09-09T05:35:11.164Z,22.24
2014-09-09T05:36:15.853Z,22.22
2014-09-09T05:37:20.840Z,22
2014-09-09T05:38:25.514Z,22.25
2014-09-09T05:39:30.203Z,22.41
2014-09-09T05:40:34.893Z,22.05
2014-09-09T05:41:39.582Z,22.08
2014-09-09T05:42:44.257Z,22.07
2014-09-09T05:43:49.242Z,22.01
2014-09-09T05:44:53.933Z,21.95
2014-09-09T05:45:58.622Z,21.89
2014-09-09T05:47:03.312Z,21.91
2014-09-09T05:48:08.283Z,21.78
2014-09-09T05:49:12.972Z,21.92
2014-09-09T05:50:17.662Z,21.82
2014-09-09T05:51:22.649Z,22.07
2014-09-09T05:52:27.338Z,22.14
2014-09-09T05:53:32.028Z,21.98
2014-09-09T05:54:36.717Z,21.91
2014-09-09T05:55:41.407Z,21.64
2014-09-09T05:56:46.097Z,21.73
2014-09-09T05:57:51.082Z,21.65
2014-09-09T05:58:55.772Z,21.89
2014-09-09T06:00:00.445Z,22.25
2014-09-09T06:01:05.136Z,22.45
2014-09-09T06:02:09.825Z,22.36
2014-09-09T06:03:14.515Z,22.2
2014-09-09T06:04:19.204Z,22.44
2014-09-09T06:05:24.191Z,22.08
2014-09-09T06:06:28.880Z,22.19
2014-09-09T06:07:33.570Z,22.41
2014-09-09T06:08:38.557Z,22.62
2014-09-09T06:09:43.261Z,22.26
2014-09-09T06:10:47.951Z,22.32
2014-09-09T06:11:52.938Z,22.59
2014-09-09T06:12:57.628Z,22.64
2014-09-09T06:14:02.317Z,22.71
2014-09-09T06:15:07.303Z,22.65
2014-09-09T06:16:11.992Z,22.73
2014-09-09T06:17:16.979Z,22.77
2014-09-09T06:18:21.653Z,22.99
2014-09-09T06:19:26.358Z,22.98
2014-09-09T06:20:31.048Z,22.96
2014-09-09T06:21:35.722Z,22.93
2014-09-09T06:22:40.411Z,23.38
2014-09-09T06:23:45.116Z,24.29
2014-09-09T06:24:49.806Z,24.58
2014-09-09T06:25:54.496Z,24.78
2014-09-09T06:26:59.185Z,25.32
2014-09-09T06:28:04.172Z,24.77
2014-09-09T06:29:08.862Z,24.34
2014-09-09T06:30:13.551Z,24.14
2014-09-09T06:31:18.241Z,24.04
2014-09-09T06:32:23.227Z,23.88
2014-09-09T06:33:27.917Z,23.88
2014-09-09T06:34:32.606Z,24.06
2014-09-09T06:35:37.592Z,24.09
2014-09-09T06:36:42.282Z,23.98
2014-09-09T06:37:46.971Z,24.8
2014-09-09T06:38:51.958Z,25.71
2014-09-09T06:39:56.647Z,26.78
2014-09-09T06:41:01.337Z,27.68
2014-09-09T06:42:06.026Z,27.9
2014-09-09T06:43:10.717Z,28.02
2014-09-09T06:44:15.702Z,27.35
2014-09-09T06:45:20.690Z,27.93
2014-09-09T06:46:25.676Z,28.38
2014-09-09T06:47:30.365Z,27.7
2014-09-09T06:48:35.055Z,26.85
2014-09-09T06:49:39.744Z,26.49
2014-09-09T06:50:44.731Z,26.35
2014-09-09T06:51:49.733Z,25.8
2014-09-09T06:52:54.422Z,26.03
2014-09-09T06:53:59.409Z,25.81
2014-09-09T06:55:04.396Z,25.59
2014-09-09T06:56:09.085Z,25.47
2014-09-09T06:57:13.791Z,25.67
2014-09-09T06:58:18.480Z,25.81
2014-09-09T06:59:23.170Z,25.77
2014-09-09T07:00:27.875Z,25.95
2014-09-09T07:01:32.564Z,25.83
2014-09-09T07:02:37.254Z,25.48
2014-09-09T07:03:41.943Z,24.78
2014-09-09T07:04:46.648Z,24.78
2014-09-09T07:05:51.635Z,24.65
2014-09-09T07:06:56.324Z,24.48
2014-09-09T07:08:01.014Z,24.36
2014-09-09T07:09:05.703Z,24.33
2014-09-09T07:10:10.394Z,24.1
2014-09-09T07:11:15.082Z,23.88
2014-09-09T07:12:19.773Z,23.78
2014-09-09T07:13:24.758Z,23.57
2014-09-09T07:14:29.464Z,23.53
2014-09-09T07:15:34.451Z,23.36
2014-09-09T07:16:39.140Z,23.34
2014-09-09T07:17:43.830Z,23.47
2014-09-09T07:18:48.519Z,23.2
2014-09-09T07:19:53.210Z,23.13
2014-09-09T07:20:57.898Z,23.24
2014-09-09T07:22:02.589Z,23.45
2014-09-09T07:23:07.277Z,23.22
2014-09-09T07:24:11.968Z,23.08
2014-09-09T07:25:16.656Z,23.08
2014-09-09T07:26:21.347Z,23.1
2014-09-09T07:27:26.035Z,23.13
2014-09-09T07:28:30.726Z,23.08
2014-09-09T07:29:35.431Z,23.05
2014-09-09T07:30:40.416Z,23.04
2014-09-09T07:31:45.404Z,23.44
2014-09-09T07:32:50.093Z,23.49
2014-09-09T07:33:54.783Z,23.46
2014-09-09T07:34:59.472Z,23.52
2014-09-09T07:36:04.458Z,23.55
2014-09-09T07:37:09.148Z,23.25
2014-09-09T07:38:13.837Z,23.36
2014-09-09T07:39:18.824Z,23.36
2014-09-09T07:40:23.514Z,23.4
2014-09-09T07:41:28.187Z,23
2014-09-09T07:42:32.878Z,23.06
2014-09-09T07:43:37.894Z,23.39
2014-09-09T07:44:42.896Z,23.4
2014-09-09T07:45:47.602Z,23.6
2014-09-09T07:46:52.292Z,23.64
2014-09-09T07:47:56.997Z,23.97
2014-09-09T07:49:01.983Z,24.35
2014-09-09T07:50:06.673Z,24.36
2014-09-09T07:51:11.362Z,24.34
2014-09-09T07:52:16.349Z,24.53
2014-09-09T07:53:21.335Z,24.76
2014-09-09T07:54:26.010Z,24.67
2014-09-09T07:55:30.699Z,24.76
2014-09-09T07:56:35.389Z,24.66
2014-09-09T07:57:40.079Z,24.52
2014-09-09T07:58:44.768Z,24.35
2014-09-09T07:59:49.458Z,24.39
2014-09-09T08:00:54.147Z,24.26
2014-09-09T08:01:59.133Z,23.75
2014-09-09T08:03:03.823Z,23.7
2014-09-09T08:04:08.809Z,23.89
2014-09-09T08:05:13.499Z,23.91
2014-09-09T08:06:18.485Z,24.25
2014-09-09T08:07:22.487Z,24.55
2014-09-09T08:08:27.162Z,24.91
2014-09-09T08:09:31.883Z,25.18
2014-09-09T08:10:36.868Z,25.3
2014-09-09T08:11:41.559Z,25.72
2014-09-09T08:12:46.248Z,25.66
2014-09-09T08:13:50.922Z,25.64
2014-09-09T08:14:55.612Z,25.08
2014-09-09T08:16:00.629Z,23.95
2014-09-09T08:17:05.319Z,24.46
2014-09-09T08:18:10.305Z,24.42
2014-09-09T08:19:14.979Z,24.74
2014-09-09T08:20:19.965Z,25.04
2014-09-09T08:21:24.655Z,24.85
2014-09-09T08:22:29.657Z,24.89
2014-09-09T08:23:34.346Z,25.14
2014-09-09T08:24:39.318Z,25.29
2014-09-09T08:25:44.022Z,25.46
2014-09-09T08:26:48.728Z,24.81
2014-09-09T08:27:53.715Z,25.32
2014-09-09T08:28:58.404Z,25.76
2014-09-09T08:30:03.078Z,25.52
2014-09-09T08:31:07.080Z,25.49
2014-09-09T08:32:11.770Z,25.93
2014-09-09T08:33:16.756Z,26.02
2014-09-09T08:34:21.742Z,25.75
2014-09-09T08:35:26.729Z,25.96
2014-09-09T08:36:31.418Z,25.99
2014-09-09T08:37:36.109Z,25.91
2014-09-09T08:38:40.782Z,25.8
2014-09-09T08:39:45.471Z,26.11
2014-09-09T08:40:50.473Z,25.46
2014-09-09T08:41:55.459Z,24.82
2014-09-09T08:43:00.149Z,24.93
2014-09-09T08:44:04.823Z,25.42
2014-09-09T08:45:09.512Z,25.92
2014-09-09T08:46:14.202Z,25.83
2014-09-09T08:47:18.891Z,25.61
2014-09-09T08:48:23.565Z,25.67
2014-09-09T08:49:28.255Z,25.7
2014-09-09T08:50:33.241Z,25.54
2014-09-09T08:51:37.931Z,25.47
2014-09-09T08:52:42.620Z,25.99
2014-09-09T08:53:47.312Z,26.16
2014-09-09T08:54:52.001Z,26.31
2014-09-09T08:55:56.690Z,26.45
2014-09-09T08:57:01.676Z,26.4
2014-09-09T08:58:06.365Z,26.19
2014-09-09T08:59:11.352Z,26.1
2014-09-09T09:00:16.041Z,26.2
2014-09-09T09:01:21.028Z,26.39
2014-09-09T09:02:25.717Z,26.22
2014-09-09T09:03:30.704Z,26.3
2014-09-09T09:04:35.690Z,26.41
2014-09-09T09:05:40.379Z,26.44
2014-09-09T09:06:45.069Z,26.53
2014-09-09T09:07:49.757Z,26.6
2014-09-09T09:08:54.431Z,26.5
2014-09-09T09:09:59.123Z,26.62
2014-09-09T09:11:03.812Z,26.73
2014-09-09T09:12:08.502Z,26.64
2014-09-09T09:13:13.488Z,26.75
2014-09-09T09:14:18.162Z,26.51
2014-09-09T09:15:22.852Z,26.76
2014-09-09T09:16:27.541Z,26.47
2014-09-09T09:17:32.527Z,26.46
2014-09-09T09:18:37.514Z,26.46
2014-09-09T09:19:42.501Z,26.48
2014-09-09T09:20:47.191Z,26.56
2014-09-09T09:21:51.896Z,26.46
2014-09-09T09:22:56.585Z,26.12
2014-09-09T09:24:01.274Z,26.03
2014-09-09T09:25:06.260Z,26.14
2014-09-09T09:26:11.248Z,26.18
2014-09-09T09:27:15.921Z,25.52
2014-09-09T09:28:20.611Z,25.98
2014-09-09T09:29:25.300Z,26.21
2014-09-09T09:30:29.990Z,25.44
2014-09-09T09:31:34.679Z,26
2014-09-09T09:32:39.369Z,26.2
2014-09-09T09:33:44.043Z,25.76
2014-09-09T09:34:48.733Z,26.21
2014-09-09T09:35:53.720Z,25.8
2014-09-09T09:36:58.409Z,25.31
2014-09-09T09:38:03.099Z,25.78
2014-09-09T09:39:07.788Z,26.26
2014-09-09T09:40:12.462Z,25.72
2014-09-09T09:41:17.152Z,25.37
2014-09-09T09:42:21.841Z,25.71
2014-09-09T09:43:26.827Z,25.26
2014-09-09T09:44:31.517Z,25.26
2014-09-09T09:45:36.503Z,25.24
2014-09-09T09:46:41.176Z,25.46
2014-09-09T09:47:45.881Z,25.35
2014-09-09T09:48:50.572Z,25.81
2014-09-09T09:49:55.260Z,25.96
2014-09-09T09:51:00.247Z,25.56
2014-09-09T09:52:04.937Z,26.11
2014-09-09T09:53:09.924Z,26.3
2014-09-09T09:54:14.597Z,25.95
2014-09-09T09:55:19.287Z,26.32
2014-09-09T09:56:23.976Z,26.28
2014-09-09T09:57:28.666Z,25.91
2014-09-09T09:58:33.355Z,25.66
2014-09-09T09:59:38.045Z,26.04
2014-09-09T10:00:42.734Z,25.59
2014-09-09T10:01:46.723Z,25.92
2014-09-09T10:02:51.428Z,26.17
2014-09-09T10:03:56.117Z,26.46
2014-09-09T10:05:00.791Z,26.62
2014-09-09T10:06:04.809Z,26.52
2014-09-09T10:07:09.795Z,26.68
2014-09-09T10:08:14.765Z,26.82
2014-09-09T10:09:19.470Z,27.04
2014-09-09T10:10:24.160Z,27.06
2014-09-09T10:11:28.834Z,26.46
2014-09-09T10:12:33.523Z,26.57
2014-09-09T10:13:38.213Z,26.58
2014-09-09T10:14:42.902Z,26.52
2014-09-09T10:15:47.592Z,26.7
2014-09-09T10:16:52.281Z,26.67
2014-09-09T10:17:56.972Z,26.36
2014-09-09T10:19:01.958Z,26.55
2014-09-09T10:20:06.647Z,26.67
2014-09-09T10:21:11.337Z,26.79
2014-09-09T10:22:16.307Z,26.01
2014-09-09T10:23:21.294Z,26.41
2014-09-09T10:24:25.984Z,26.25
2014-09-09T10:25:30.673Z,26.18
2014-09-09T10:26:35.363Z,26.4
2014-09-09T10:27:40.054Z,26.04
2014-09-09T10:28:45.039Z,26.03
2014-09-09T10:29:50.026Z,26.16
2014-09-09T10:30:54.731Z,26.09
2014-09-09T10:31:59.420Z,26
2014-09-09T10:33:04.391Z,26.15
2014-09-09T10:34:09.081Z,25.98
2014-09-09T10:35:13.770Z,25.92
2014-09-09T10:36:18.460Z,26.05
2014-09-09T10:37:23.446Z,26.23
2014-09-09T10:38:28.136Z,26.23
2014-09-09T10:39:32.809Z,26.43
2014-09-09T10:40:37.530Z,26.58
2014-09-09T10:41:42.220Z,26.32
2014-09-09T10:42:46.909Z,26.51
2014-09-09T10:43:51.599Z,26.59
2014-09-09T10:44:56.272Z,26.74
2014-09-09T10:46:00.964Z,26.84
2014-09-09T10:47:05.654Z,26.04
2014-09-09T10:48:10.342Z,25.68
2014-09-09T10:49:15.032Z,26.16
2014-09-09T10:50:19.721Z,26.56
2014-09-09T10:51:24.707Z,26.76
2014-09-09T10:52:29.398Z,26.8
2014-09-09T10:53:34.072Z,26.44
2014-09-09T10:54:39.059Z,26.38
2014-09-09T10:55:44.045Z,26.44
2014-09-09T10:56:48.734Z,26.57
2014-09-09T10:57:53.425Z,26.38
2014-09-09T10:58:58.411Z,26.6
2014-09-09T11:00:03.396Z,26.69
2014-09-09T11:01:08.086Z,26.85
2014-09-09T11:02:12.775Z,26.82
2014-09-09T11:03:17.466Z,26.97
2014-09-09T11:04:22.155Z,26.98
2014-09-09T11:05:26.845Z,27.16
2014-09-09T11:06:31.534Z,27.08
2014-09-09T11:07:36.224Z,27.35
2014-09-09T11:08:40.913Z,27.37
2014-09-09T11:09:45.604Z,27.66
2014-09-09T11:10:50.589Z,27.37
2014-09-09T11:11:55.280Z,27.38
2014-09-09T11:12:59.282Z,27.08
2014-09-09T11:14:03.970Z,27.02
2014-09-09T11:15:08.754Z,27
2014-09-09T11:16:13.444Z,26.7
2014-09-09T11:17:18.133Z,26.39
2014-09-09T11:18:22.823Z,26.93
2014-09-09T11:19:27.512Z,27.08
2014-09-09T11:20:32.202Z,27.04
2014-09-09T11:21:36.891Z,26.58
2014-09-09T11:22:41.582Z,26.28
2014-09-09T11:23:46.567Z,26.61
2014-09-09T11:24:51.258Z,26.9
2014-09-09T11:25:55.946Z,27
2014-09-09T11:27:00.934Z,26.13
2014-09-09T11:28:05.622Z,26.58
2014-09-09T11:29:10.360Z,26.56
2014-09-09T11:30:15.049Z,26.46
2014-09-09T11:31:19.739Z,26.82
2014-09-09T11:32:24.725Z,26.44
2014-09-09T11:33:29.414Z,26.5
2014-09-09T11:34:33.416Z,26.54
2014-09-09T11:35:38.403Z,26.86
2014-09-09T11:36:43.092Z,27.06
2014-09-09T11:37:47.782Z,26.68
2014-09-09T11:38:52.471Z,26.91
2014-09-09T11:39:57.177Z,27.1
2014-09-09T11:41:01.867Z,27.3
2014-09-09T11:42:06.572Z,26.84
2014-09-09T11:43:11.276Z,27.21
2014-09-09T11:44:15.967Z,27.33
2014-09-09T11:45:20.655Z,26.68
2014-09-09T11:46:25.346Z,26.51
2014-09-09T11:47:30.034Z,26.04
2014-09-09T11:48:34.725Z,26.36
2014-09-09T11:49:39.414Z,26.49
2014-09-09T11:50:44.119Z,26.55
2014-09-09T11:51:49.121Z,26.36
2014-09-09T11:52:53.811Z,26.72
2014-09-09T11:53:57.813Z,26.76
2014-09-09T11:55:02.502Z,25.5
2014-09-09T11:56:07.193Z,26.11
2014-09-09T11:57:11.881Z,26.37
2014-09-09T11:58:16.869Z,26.49
2014-09-09T11:59:21.557Z,26.57
2014-09-09T12:00:26.248Z,26.68
2014-09-09T12:01:30.250Z,26.63
2014-09-09T12:02:34.938Z,26.7
2014-09-09T12:03:39.629Z,27.04
2014-09-09T12:04:44.318Z,27.01
2014-09-09T12:05:49.008Z,26.84
2014-09-09T12:06:53.010Z,26.68
2014-09-09T12:07:57.715Z,26.46
2014-09-09T12:09:02.404Z,26.69
2014-09-09T12:10:07.094Z,26.99
2014-09-09T12:11:11.783Z,26.92
2014-09-09T12:12:16.474Z,27.06
2014-09-09T12:13:21.162Z,27.39
2014-09-09T12:14:25.853Z,27.36
2014-09-09T12:15:30.557Z,27.3
2014-09-09T12:16:35.544Z,27.48
2014-09-09T12:17:40.234Z,27.58
2014-09-09T12:18:44.923Z,27.5
2014-09-09T12:19:49.910Z,27.46
2014-09-09T12:20:54.896Z,27.28
2014-09-09T12:21:59.586Z,27.37
2014-09-09T12:23:04.276Z,27.27
2014-09-09T12:24:08.965Z,27.1
2014-09-09T12:25:13.655Z,27.2
2014-09-09T12:26:18.344Z,26.38
2014-09-09T12:27:23.034Z,26.78
2014-09-09T12:28:27.723Z,27.2
2014-09-09T12:29:32.429Z,27.66
2014-09-09T12:30:37.148Z,27.64
2014-09-09T12:31:42.136Z,27.72
2014-09-09T12:32:46.857Z,27.86
2014-09-09T12:33:51.546Z,27.9
2014-09-09T12:34:56.548Z,27.91
2014-09-09T12:36:01.534Z,27.86
2014-09-09T12:37:06.521Z,27.76
2014-09-09T12:38:11.507Z,27.52
2014-09-09T12:39:16.197Z,27.92
2014-09-09T12:40:20.886Z,27.84
2014-09-09T12:41:25.576Z,27.78
2014-09-09T12:42:30.265Z,27.68
2014-09-09T12:43:34.956Z,27.49
2014-09-09T12:44:39.644Z,27.59
2014-09-09T12:45:44.335Z,27.62
2014-09-09T12:46:49.023Z,27.26
2014-09-09T12:47:54.011Z,27.19
2014-09-09T12:48:58.700Z,27.36
2014-09-09T12:50:03.405Z,27.72
2014-09-09T12:51:08.095Z,28
2014-09-09T12:52:12.769Z,27.8
2014-09-09T12:53:17.475Z,27.71
2014-09-09T12:54:22.461Z,27.93
2014-09-09T12:55:27.150Z,27.81
2014-09-09T12:56:31.840Z,27.65
2014-09-09T12:57:36.529Z,27.98
2014-09-09T12:58:41.235Z,28.01
2014-09-09T12:59:45.923Z,28
2014-09-09T13:00:50.911Z,27.61
2014-09-09T13:01:55.600Z,27.82
2014-09-09T13:03:00.290Z,28.04
2014-09-09T13:04:05.276Z,28.05
2014-09-09T13:05:09.965Z,28.26
2014-09-09T13:06:14.671Z,28.28
2014-09-09T13:07:19.361Z,28.03
2014-09-09T13:08:24.346Z,28.3
2014-09-09T13:09:29.037Z,27.94
2014-09-09T13:10:33.725Z,27.91
2014-09-09T13:11:38.416Z,28.02
2014-09-09T13:12:43.104Z,27.94
2014-09-09T13:13:47.795Z,27.77
2014-09-09T13:14:52.483Z,27.61
2014-09-09T13:15:57.190Z,27.64
2014-09-09T13:17:01.895Z,27.56
2014-09-09T13:18:06.584Z,27.54
2014-09-09T13:19:11.274Z,27.79
2014-09-09T13:20:15.994Z,27.71
2014-09-09T13:21:20.996Z,27.65
2014-09-09T13:22:25.686Z,27.54
2014-09-09T13:23:30.375Z,27.72
2014-09-09T13:24:35.065Z,27.66
2014-09-09T13:25:40.051Z,27.55
2014-09-09T13:26:44.742Z,27.58
2014-09-09T13:27:49.431Z,27.53
2014-09-09T13:28:54.121Z,27.68
2014-09-09T13:29:58.810Z,27.61
2014-09-09T13:31:03.499Z,27.34
2014-09-09T13:32:08.189Z,27.44
2014-09-09T13:33:12.878Z,27.46
2014-09-09T13:34:17.568Z,27.59
2014-09-09T13:35:22.258Z,27.43
2014-09-09T13:36:26.947Z,27.1
2014-09-09T13:37:31.637Z,26.78
2014-09-09T13:38:36.342Z,27.29
2014-09-09T13:39:41.328Z,27.4
2014-09-09T13:40:46.316Z,27.51
2014-09-09T13:41:51.004Z,27.39
2014-09-09T13:42:55.695Z,27.28
2014-09-09T13:44:00.405Z,27.78
2014-09-09T13:45:05.435Z,27.48
2014-09-09T13:46:10.167Z,27.62
2014-09-09T13:47:14.901Z,27.62
2014-09-09T13:48:19.633Z,28.02
2014-09-09T13:49:24.342Z,27.77
2014-09-09T13:50:29.047Z,27.56
2014-09-09T13:51:33.752Z,27.43
2014-09-09T13:52:38.456Z,27.44
2014-09-09T13:53:43.160Z,27.69
2014-09-09T13:54:47.854Z,27.77
2014-09-09T13:55:52.846Z,27.55
2014-09-09T13:56:57.542Z,27.12
2014-09-09T13:58:01.550Z,26.92